Time;durP1;ratioP1;P1;durP2;ratioP2;P2;SDS_P1;SDS_P2;PMS_P1;PMS_P2;Temp;Humidity;BMP_temperature;BMP_pressure;BME280_temperature;BME280_humidity;BME280_pressure;Samples;Min_cycle;Max_cycle;Signal;HPM_P1;HPM_P2
2024/01/01 00:04:07;;;;;;;179.60;135.20;;;4.60;99.90;;;5.32;97.03;97166.69;10454194;28;20229;-67
2024/01/01 00:09:10;;;;;;;137.17;101.97;;;4.70;99.90;;;5.71;92.95;97173.47;10464300;28;20603;-66
2024/01/01 00:14:14;;;;;;;139.20;106.40;;;5.00;99.90;;;5.46;94.76;97165.06;10477283;28;20223;-67
2024/01/01 00:19:18;;;;;;;121.33;90.33;;;4.90;99.90;;;5.52;95.57;97155.31;10478550;28;20688;-66
2024/01/01 00:24:21;;;;;;;147.30;108.07;;;4.90;99.90;;;5.33;96.61;97160.88;10480624;28;20700;-67
2024/01/01 00:29:25;;;;;;;118.40;91.90;;;4.80;99.90;;;5.49;96.60;97170.31;10469587;28;20232;-67
2024/01/01 00:34:40;;;;;;;68.70;54.97;;;4.80;99.90;;;6.06;90.34;97172.34;10470809;28;20225;-67
2024/01/01 00:39:43;;;;;;;80.00;58.80;;;5.30;99.90;;;5.90;90.87;97169.59;10472811;28;20232;-66
2024/01/01 00:44:46;;;;;;;66.30;51.37;;;5.20;99.90;;;5.76;91.69;97172.13;10460391;28;20803;-66
2024/01/01 00:49:51;;;;;;;60.37;48.37;;;5.20;99.90;;;5.76;93.44;97172.13;10451959;28;20341;-66
2024/01/01 00:54:54;;;;;;;35.00;27.50;;;5.10;99.90;;;5.90;91.56;97167.06;10448355;28;20715;-67
2024/01/01 00:59:58;;;;;;;31.30;25.60;;;5.10;99.90;;;5.86;92.16;97159.22;10442289;28;20228;-67
2024/01/01 01:05:02;;;;;;;28.13;22.73;;;5.20;99.90;;;6.07;89.74;97179.19;10453379;28;20646;-66
2024/01/01 01:10:10;;;;;;;25.93;21.83;;;5.30;99.90;;;5.92;91.82;97170.56;10444839;28;20360;-67
2024/01/01 01:15:13;;;;;;;22.77;18.07;;;5.20;99.90;;;5.99;91.58;97155.00;10451206;28;20301;-66
2024/01/01 01:20:18;;;;;;;17.97;16.07;;;5.20;99.90;;;6.14;89.44;97152.53;10452820;28;22018;-67
2024/01/01 01:25:21;;;;;;;16.57;13.80;;;5.30;99.90;;;5.98;88.08;97158.28;10458195;28;20221;-66
2024/01/01 01:30:25;;;;;;;17.37;13.77;;;5.30;99.90;;;5.84;88.72;97170.97;10456520;28;20229;-67
2024/01/01 01:35:29;;;;;;;19.00;15.00;;;5.20;99.90;;;6.07;87.68;97144.53;10452328;28;20279;-66
2024/01/01 01:40:32;;;;;;;19.87;14.57;;;5.30;99.90;;;5.98;88.61;97179.47;10461081;28;20231;-67
2024/01/01 01:45:36;;;;;;;16.50;13.30;;;5.30;99.90;;;6.01;88.66;97159.38;10461698;28;20229;-66
2024/01/01 01:50:40;;;;;;;18.23;15.33;;;5.30;99.90;;;5.82;90.82;97171.63;10456230;28;20307;-66
2024/01/01 01:55:46;;;;;;;17.63;14.73;;;5.20;99.90;;;5.87;91.49;97186.38;10455253;28;20228;-67
2024/01/01 02:00:51;;;;;;;21.53;17.03;;;5.10;99.90;;;5.91;90.61;97181.50;10450840;28;20239;-67
2024/01/01 02:05:56;;;;;;;20.10;17.00;;;5.10;99.90;;;5.84;91.87;97186.19;10462131;28;20592;-66
2024/01/01 02:10:59;;;;;;;16.83;12.60;;;5.20;99.90;;;5.97;91.24;97179.38;10456114;28;20345;-66
2024/01/01 02:16:03;;;;;;;14.93;13.07;;;5.20;99.90;;;5.75;93.56;97172.91;10465937;28;20225;-68
2024/01/01 02:21:07;;;;;;;19.13;14.40;;;5.10;99.90;;;5.56;95.06;97167.44;10453346;28;20568;-67
2024/01/01 02:26:16;;;;;;;16.43;13.27;;;5.00;99.90;;;5.43;95.79;97171.69;10449344;28;20780;-66
2024/01/01 02:31:19;;;;;;;15.13;12.33;;;4.80;99.90;;;5.40;95.94;97156.28;10459789;28;20240;-67
2024/01/01 02:36:24;;;;;;;15.77;12.33;;;4.80;99.90;;;5.48;95.95;97155.91;10457699;28;20238;-67
2024/01/01 02:41:29;;;;;;;17.63;12.27;;;4.90;99.90;;;5.39;94.48;97159.59;10452126;28;20251;-67
2024/01/01 02:46:33;;;;;;;14.87;10.57;;;4.90;99.90;;;5.56;93.82;97175.03;10453166;28;20585;-67
2024/01/01 02:51:36;;;;;;;16.13;12.70;;;5.00;99.90;;;5.61;94.62;97181.28;10456167;28;20715;-66
2024/01/01 02:56:41;;;;;;;17.53;14.60;;;5.00;99.90;;;5.72;94.99;97187.03;10451351;28;20224;-66
2024/01/01 03:01:44;;;;;;;20.67;16.60;;;5.00;99.90;;;5.81;93.96;97188.50;10457703;28;20233;-67
2024/01/01 03:06:47;;;;;;;16.87;13.03;;;5.10;99.90;;;5.67;94.62;97179.16;10445921;28;20307;-66
2024/01/01 03:11:51;;;;;;;12.43;10.70;;;5.00;99.90;;;5.80;94.26;97181.66;10455736;28;20243;-66
2024/01/01 03:16:56;;;;;;;14.67;10.03;;;5.10;99.90;;;5.77;94.49;97173.88;10459901;28;20754;-67
2024/01/01 03:21:59;;;;;;;15.07;10.70;;;5.10;99.90;;;5.85;94.40;97175.25;10449532;28;20731;-67
2024/01/01 03:27:05;;;;;;;13.17;9.67;;;5.20;99.90;;;6.04;93.46;97174.78;10451266;28;21032;-68
2024/01/01 03:32:08;;;;;;;15.00;10.67;;;5.30;99.90;;;6.09;92.25;97172.53;10452830;28;20228;-67
2024/01/01 03:37:12;;;;;;;13.90;8.93;;;5.40;99.90;;;6.14;92.10;97190.59;10451134;28;20221;-67
2024/01/01 03:42:16;;;;;;;9.80;7.07;;;5.40;99.90;;;6.39;91.92;97187.94;10449664;28;20697;-66
2024/01/01 03:47:20;;;;;;;8.07;6.83;;;5.60;99.90;;;6.27;92.69;97188.91;10459813;28;20231;-67
2024/01/01 03:52:25;;;;;;;9.77;7.97;;;5.60;99.90;;;6.22;94.11;97205.50;10448702;28;20777;-66
2024/01/01 03:57:31;;;;;;;9.97;6.53;;;5.60;99.90;;;6.30;93.34;97204.34;10454244;28;20314;-67
2024/01/01 04:02:35;;;;;;;7.93;6.37;;;5.60;99.90;;;6.54;90.88;97199.03;10450458;28;20221;-66
2024/01/01 04:07:38;;;;;;;8.03;5.60;;;5.60;99.90;;;6.57;91.89;97203.41;10459235;28;20317;-66
2024/01/01 04:12:43;;;;;;;7.90;5.60;;;5.60;99.90;;;6.66;90.86;97204.84;10475221;28;20742;-67
2024/01/01 04:17:46;;;;;;;8.30;5.60;;;5.70;99.90;;;6.63;89.97;97198.72;10475635;28;20503;-66
2024/01/01 04:22:51;;;;;;;5.73;4.93;;;5.80;99.90;;;6.82;87.76;97200.72;10476528;28;20236;-67
2024/01/01 04:27:56;;;;;;;7.07;4.97;;;6.10;99.90;;;6.88;88.15;97206.16;10476853;28;20248;-67
2024/01/01 04:32:59;;;;;;;5.97;4.30;;;6.20;99.90;;;6.90;86.76;97207.13;10478073;28;20231;-67
2024/01/01 04:38:03;;;;;;;5.77;4.10;;;6.30;99.90;;;6.94;86.00;97206.53;10481019;28;20613;-70
2024/01/01 04:43:08;;;;;;;5.70;3.90;;;6.10;99.90;;;6.95;86.16;97218.44;10480470;28;20224;-67
2024/01/01 04:48:11;;;;;;;5.57;4.07;;;6.10;99.90;;;6.86;86.35;97210.25;10474658;28;20236;-67
2024/01/01 04:53:15;;;;;;;5.10;3.53;;;6.40;99.90;;;6.79;86.30;97196.31;10475380;28;20785;-67
2024/01/01 04:58:20;;;;;;;6.37;4.40;;;6.40;99.90;;;6.74;86.57;97203.66;10475348;28;20271;-67
2024/01/01 05:03:23;;;;;;;5.13;3.63;;;6.30;99.90;;;6.67;86.99;97204.06;10473426;28;20220;-66
2024/01/01 05:08:26;;;;;;;5.87;3.63;;;6.20;99.90;;;6.65;87.24;97207.31;10465007;28;20248;-67
2024/01/01 05:13:31;;;;;;;4.50;3.40;;;6.10;99.90;;;6.59;86.94;97206.94;10476042;28;20231;-67
2024/01/01 05:18:34;;;;;;;4.10;3.40;;;6.00;99.90;;;6.48;87.65;97203.72;10476053;28;20220;-66
2024/01/01 05:23:37;;;;;;;3.97;3.23;;;5.80;99.90;;;6.44;87.17;97206.84;10474526;28;20228;-66
2024/01/01 05:28:42;;;;;;;4.37;3.40;;;5.90;99.90;;;6.50;87.81;97222.47;10474076;28;20722;-66
2024/01/01 05:33:45;;;;;;;3.73;3.00;;;5.80;99.90;;;6.58;86.59;97211.13;10474336;28;20228;-66
2024/01/01 05:38:48;;;;;;;3.63;2.73;;;6.00;99.90;;;6.51;86.54;97224.22;10478048;28;20803;-67
2024/01/01 05:43:52;;;;;;;4.57;3.30;;;6.10;99.90;;;6.48;85.59;97229.09;10476129;28;20231;-67
2024/01/01 05:48:56;;;;;;;5.30;3.03;;;6.10;99.90;;;6.48;86.01;97226.56;10478693;28;20643;-66
2024/01/01 05:53:59;;;;;;;4.63;3.20;;;6.10;99.90;;;6.35;86.72;97231.66;10475495;28;20228;-67
2024/01/01 05:59:03;;;;;;;3.70;3.00;;;5.80;99.90;;;6.23;87.54;97235.16;10478408;28;20229;-67
2024/01/01 06:04:06;;;;;;;4.37;2.77;;;5.50;99.90;;;6.23;86.96;97245.31;10476586;28;20224;-67
2024/01/01 06:09:09;;;;;;;2.90;2.47;;;5.50;99.90;;;6.30;86.12;97265.25;10485152;28;20236;-66
2024/01/01 06:14:15;;;;;;;3.80;2.93;;;6.00;99.90;;;6.36;86.52;97272.38;10486049;28;20228;-67
2024/01/01 06:19:18;;;;;;;2.63;2.33;;;6.00;99.90;;;6.37;86.32;97275.78;10482767;28;20228;-66
2024/01/01 06:24:21;;;;;;;3.17;2.23;;;6.00;99.90;;;6.45;84.93;97285.63;10462149;28;20233;-66
2024/01/01 06:29:27;;;;;;;3.50;2.50;;;6.10;99.90;;;6.49;85.08;97284.16;10451620;28;20786;-67
2024/01/01 06:34:30;;;;;;;2.37;2.10;;;6.10;99.90;;;6.64;83.91;97281.69;10467553;28;20224;-66
2024/01/01 06:39:33;;;;;;;4.20;2.53;;;6.30;99.90;;;6.64;82.71;97286.78;10438509;28;20725;-65
2024/01/01 06:44:37;;;;;;;4.10;2.40;;;6.40;99.90;;;6.56;83.21;97276.16;10490061;28;20250;-66
2024/01/01 06:49:40;;;;;;;3.30;2.80;;;6.10;99.90;;;6.56;81.96;97281.25;10446497;28;20241;-66
2024/01/01 06:54:44;;;;;;;4.57;2.47;;;6.20;99.90;;;6.59;82.03;97278.91;10486576;28;20224;-67
2024/01/01 06:59:48;;;;;;;3.17;2.20;;;6.10;99.90;;;6.45;82.88;97277.16;10450645;28;20701;-65
2024/01/01 07:04:51;;;;;;;3.13;2.00;;;5.90;99.90;;;6.53;82.00;97268.34;10452011;28;20220;-66
2024/01/01 07:09:55;;;;;;;2.87;2.10;;;5.90;99.90;;;6.42;82.29;97276.94;10455990;28;20266;-66
2024/01/01 07:15:00;;;;;;;3.60;2.00;;;5.90;99.90;;;6.47;82.12;97283.22;10476354;28;20212;-66
2024/01/01 07:20:05;;;;;;;6.50;2.53;;;5.80;99.90;;;6.43;82.19;97299.88;10500646;28;20233;-67
2024/01/01 07:25:09;;;;;;;6.10;2.30;;;5.90;99.90;;;6.30;82.04;97312.59;10412343;28;20221;-67
2024/01/01 07:30:14;;;;;;;3.80;2.30;;;5.80;99.90;;;6.23;82.85;97323.97;10414205;28;20243;-66
2024/01/01 07:35:18;;;;;;;3.63;2.10;;;5.50;99.90;;;6.28;82.63;97329.38;10438318;28;20230;-66
2024/01/01 07:40:21;;;;;;;3.83;2.37;;;5.60;99.90;;;6.08;84.28;97326.41;10485230;28;20630;-66
2024/01/01 07:45:26;;;;;;;2.33;2.00;;;5.40;99.90;;;6.25;82.89;97335.13;10493423;28;20225;-66
2024/01/01 07:50:29;;;;;;;5.00;2.40;;;5.40;99.90;;;6.09;84.34;97342.50;10483187;28;20231;-66
2024/01/01 07:55:32;;;;;;;3.67;2.40;;;5.40;99.90;;;6.16;83.20;97352.28;10494178;28;20231;-66
2024/01/01 08:00:37;;;;;;;2.77;2.20;;;5.40;99.90;;;6.36;80.70;97345.09;10487248;28;20227;-66
2024/01/01 08:05:40;;;;;;;3.80;2.23;;;5.70;99.90;;;6.40;80.86;97339.44;10486918;28;21080;-66
2024/01/01 08:10:44;;;;;;;5.63;2.73;;;5.90;99.90;;;6.55;80.85;97340.41;10484900;28;20233;-66
2024/01/01 08:15:49;;;;;;;5.67;2.23;;;6.20;99.90;;;6.89;79.91;97360.31;10483656;28;20232;-66
2024/01/01 08:20:52;;;;;;;2.93;2.50;;;6.60;99.90;;;7.03;78.22;97358.66;10487772;28;20232;-67
2024/01/01 08:25:55;;;;;;;4.23;2.20;;;6.80;99.90;;;7.44;77.51;97363.75;10488178;28;20719;-67
2024/01/01 08:31:00;;;;;;;5.60;2.50;;;7.10;99.90;;;7.63;76.54;97364.06;10484952;28;20231;-67
2024/01/01 08:36:04;;;;;;;3.60;2.37;;;7.30;99.90;;;7.50;75.60;97374.28;10466076;28;20726;-67
2024/01/01 08:41:07;;;;;;;6.73;3.00;;;7.20;99.90;;;7.42;76.97;97376.34;10491814;28;20232;-66
2024/01/01 08:46:11;;;;;;;8.13;5.03;;;7.00;99.90;;;7.47;77.26;97384.28;10488065;28;20230;-66
2024/01/01 08:51:14;;;;;;;5.07;3.23;;;6.90;99.90;;;7.48;76.95;97390.22;10430588;28;20619;-66
2024/01/01 08:56:18;;;;;;;3.90;2.50;;;7.00;99.90;;;7.37;78.72;97415.88;10498528;28;20246;-66
2024/01/01 09:01:22;;;;;;;4.50;2.50;;;6.80;99.90;;;7.36;78.71;97418.34;10492464;28;20228;-67
2024/01/01 09:06:25;;;;;;;5.60;2.40;;;6.70;99.90;;;7.39;78.29;97431.22;10454055;28;20222;-66
2024/01/01 09:11:29;;;;;;;5.60;2.53;;;6.70;99.90;;;7.37;78.04;97428.56;10469062;28;20611;-66
2024/01/01 09:16:33;;;;;;;6.07;2.20;;;7.00;99.90;;;7.52;77.04;97436.28;10491382;28;20228;-67
2024/01/01 09:21:36;;;;;;;2.20;1.93;;;7.20;99.90;;;7.86;77.18;97407.81;10430656;28;20234;-65
2024/01/01 09:26:40;;;;;;;6.23;2.43;;;7.50;99.90;;;8.22;75.29;97405.69;10404934;28;20295;-66
2024/01/01 09:31:45;;;;;;;4.80;2.37;;;7.90;99.90;;;8.36;74.28;97399.75;10407410;28;20308;-65
2024/01/01 09:36:48;;;;;;;4.47;2.47;;;7.90;99.90;;;8.33;73.62;97404.66;10471941;28;20252;-67
2024/01/01 09:42:06;;;;;;;6.77;2.13;;;7.80;99.90;;;8.43;74.60;97414.59;10470382;28;20959;-66
2024/01/01 09:47:11;;;;;;;2.77;1.97;;;7.90;99.90;;;8.30;74.80;97404.47;10469396;28;20606;-65
2024/01/01 09:52:15;;;;;;;4.27;2.23;;;7.90;99.90;;;8.49;74.52;97409.84;10470302;28;20328;-65
2024/01/01 09:57:19;;;;;;;3.80;2.37;;;8.00;99.90;;;8.64;74.18;97419.16;10481364;28;20220;-65
2024/01/01 10:02:25;;;;;;;3.33;2.50;;;8.30;99.90;;;8.71;72.41;97431.47;10467274;28;20237;-66
2024/01/01 10:07:28;;;;;;;5.70;1.80;;;8.40;99.90;;;8.74;72.67;97418.91;10435337;28;20286;-65
2024/01/01 10:12:32;;;;;;;2.27;2.07;;;8.50;99.90;;;8.59;73.04;97423.16;10467377;28;20316;-66
2024/01/01 10:17:37;;;;;;;4.23;1.97;;;8.30;99.90;;;8.50;72.69;97424.38;10500863;28;20311;-65
2024/01/01 10:22:40;;;;;;;3.10;2.03;;;8.20;99.90;;;8.55;73.65;97422.94;10487458;28;20228;-66
2024/01/01 10:27:44;;;;;;;3.07;2.87;;;8.20;99.90;;;8.51;73.45;97421.03;10480668;28;20229;-65
2024/01/01 10:32:51;;;;;;;4.03;2.00;;;8.10;99.90;;;8.52;74.00;97417.69;10471101;28;20236;-66
2024/01/01 10:37:55;;;;;;;3.70;2.10;;;8.10;99.90;;;8.69;72.59;97416.09;10490848;28;20239;-65
2024/01/01 10:42:59;;;;;;;2.80;2.40;;;8.50;99.90;;;8.87;72.05;97413.72;10411444;28;20653;-65
2024/01/01 10:48:07;;;;;;;2.77;2.10;;;8.60;99.90;;;9.04;70.44;97401.91;10407930;28;20611;-65
2024/01/01 10:53:27;;;;;;;2.43;2.00;;;8.70;99.90;;;9.15;71.61;97398.28;10489444;28;20224;-66
2024/01/01 10:58:47;;;;;;;4.00;2.10;;;8.80;99.90;;;9.34;69.88;97402.72;10494024;28;20679;-66
2024/01/01 11:03:52;;;;;;;2.50;2.00;;;8.90;99.90;;;9.40;68.24;97400.50;10490482;28;21113;-65
2024/01/01 11:08:55;;;;;;;4.40;2.00;;;9.10;99.90;;;9.41;69.01;97403.91;10490752;28;20256;-66
2024/01/01 11:14:00;;;;;;;3.97;1.93;;;9.00;99.90;;;9.55;67.56;97399.56;10494145;28;20672;-64
2024/01/01 11:19:05;;;;;;;3.95;2.22;;;9.40;99.90;;;9.70;67.42;97397.84;10491058;28;20260;-65
2024/01/01 11:24:09;;;;;;;3.70;2.30;;;9.30;99.90;;;9.80;65.64;97387.31;10460258;28;20255;-66
2024/01/01 11:29:32;;;;;;;4.00;1.90;;;9.60;99.90;;;9.72;65.77;97391.13;10445059;28;20263;-65
2024/01/01 11:34:37;;;;;;;3.42;2.08;;;9.40;99.90;;;9.58;65.91;97398.03;10461914;28;20228;-66
2024/01/01 11:39:58;;;;;;;4.15;2.28;;;9.20;99.90;;;9.47;67.89;97387.28;10484297;28;20224;-65
2024/01/01 11:45:09;;;;;;;3.97;2.25;;;8.90;99.90;;;9.39;68.72;97378.34;10476471;28;20303;-67
2024/01/01 11:50:15;;;;;;;9.20;2.40;;;8.90;99.90;;;9.42;67.21;97385.28;10475849;28;20232;-67
2024/01/01 11:55:26;;;;;;;4.05;2.30;;;8.80;99.90;;;9.07;68.28;97385.91;10474466;28;20291;-68
2024/01/01 12:00:30;;;;;;;3.63;1.90;;;8.70;99.90;;;9.12;67.91;97389.59;10489066;28;20272;-66
2024/01/01 12:05:34;;;;;;;4.60;2.20;;;8.70;99.90;;;9.03;67.17;97378.09;10480651;28;20342;-66
2024/01/01 12:10:38;;;;;;;4.27;2.50;;;8.70;99.90;;;9.12;68.14;97382.81;10485924;28;20594;-67
2024/01/01 12:15:41;;;;;;;6.93;2.27;;;8.80;99.90;;;9.28;66.32;97383.66;10482030;28;20224;-66
2024/01/01 12:20:45;;;;;;;15.93;9.83;;;8.90;99.90;;;9.20;67.06;97385.78;10484810;28;20239;-64
2024/01/01 12:26:03;;;;;;;5.87;2.33;;;8.80;99.90;;;9.26;68.13;97386.13;10487631;28;20246;-66
2024/01/01 12:31:06;;;;;;;6.27;2.47;;;8.60;99.90;;;9.09;70.91;97382.66;10466082;28;20731;-65
2024/01/01 12:36:11;;;;;;;6.27;3.10;;;8.40;99.90;;;9.14;68.95;97385.47;10486624;28;20811;-65
2024/01/01 12:41:17;;;;;;;7.88;3.10;;;8.40;99.90;;;9.03;70.02;97388.28;10436134;28;20305;-65
2024/01/01 12:46:20;;;;;;;5.88;3.63;;;8.30;99.90;;;9.02;69.45;97394.19;10413873;28;20278;-65
2024/01/01 12:51:28;;;;;;;6.03;3.30;;;8.20;99.90;;;8.97;70.26;97393.03;10413620;28;20630;-65
2024/01/01 12:56:32;;;;;;;7.33;3.90;;;8.30;99.90;;;9.06;68.94;97389.25;10404183;28;20508;-66
2024/01/01 13:01:35;;;;;;;4.47;2.58;;;8.20;99.90;;;8.95;70.14;97403.94;10409480;28;20295;-67
2024/01/01 13:06:40;;;;;;;6.97;3.17;;;8.30;99.90;;;8.61;75.37;97396.06;10445228;28;21046;-65
2024/01/01 13:11:44;;;;;;;6.23;3.03;;;8.00;99.90;;;8.67;74.54;97389.69;10490065;28;20247;-65
2024/01/01 13:16:48;;;;;;;7.20;3.80;;;8.20;99.90;;;8.54;75.25;97399.94;10449924;28;20226;-65
2024/01/01 13:21:53;;;;;;;7.57;3.40;;;8.20;99.90;;;8.70;71.78;97396.59;10437072;28;20809;-65
2024/01/01 13:26:57;;;;;;;8.63;4.60;;;8.30;99.90;;;8.63;71.03;97379.22;10490316;28;20220;-66
2024/01/01 13:32:00;;;;;;;7.83;5.10;;;8.30;99.90;;;8.71;71.77;97383.06;10484397;28;20347;-65
2024/01/01 13:37:06;;;;;;;7.30;4.60;;;8.10;99.90;;;8.66;71.74;97374.28;10485839;28;20230;-65
2024/01/01 13:42:10;;;;;;;6.40;3.20;;;8.20;99.90;;;8.71;70.50;97363.56;10487315;28;20490;-66
2024/01/01 13:47:13;;;;;;;7.00;2.70;;;8.20;99.90;;;8.63;71.46;97358.84;10478860;28;20265;-65
2024/01/01 13:52:18;;;;;;;5.53;2.57;;;8.20;99.90;;;8.62;70.95;97363.06;10483246;28;20304;-66
2024/01/01 13:57:21;;;;;;;10.23;3.80;;;8.10;99.90;;;8.64;71.28;97371.66;10483187;28;20232;-66
2024/01/01 14:02:24;;;;;;;6.17;3.00;;;8.10;99.90;;;8.80;69.83;97373.41;10481459;28;20234;-66
2024/01/01 14:07:29;;;;;;;4.93;2.63;;;8.30;99.90;;;8.74;68.85;97378.16;10466793;28;20741;-67
2024/01/01 14:12:32;;;;;;;5.73;2.60;;;8.20;99.90;;;8.81;65.91;97375.13;10437180;28;20237;-67
2024/01/01 14:17:35;;;;;;;5.87;2.63;;;8.40;99.90;;;8.77;67.17;97376.66;10405829;28;20229;-67
2024/01/01 14:22:40;;;;;;;5.23;2.70;;;8.40;99.90;;;8.84;66.63;97375.31;10421455;28;20219;-65
2024/01/01 14:27:44;;;;;;;5.63;2.37;;;8.30;99.90;;;8.87;65.68;97380.59;10435891;28;20233;-65
2024/01/01 14:32:50;;;;;;;7.43;3.63;;;8.40;99.90;;;8.85;67.60;97394.94;10418308;28;20232;-65
2024/01/01 14:37:55;;;;;;;5.97;2.63;;;8.20;99.90;;;8.88;66.52;97397.63;10467950;28;20235;-65
2024/01/01 14:42:59;;;;;;;7.83;2.80;;;8.20;99.90;;;8.79;67.00;97394.59;10489098;28;20587;-66
2024/01/01 14:48:02;;;;;;;8.63;2.20;;;8.10;99.90;;;8.89;66.12;97394.28;10488734;28;20234;-66
2024/01/01 14:53:07;;;;;;;6.60;2.80;;;8.10;99.90;;;8.72;67.42;97397.56;10475250;28;20362;-64
2024/01/01 14:58:12;;;;;;;6.47;2.93;;;8.00;99.90;;;8.74;67.15;97409.59;10497153;28;20243;-64
2024/01/01 15:03:15;;;;;;;7.20;2.40;;;7.90;99.90;;;8.70;66.26;97417.88;10497262;28;20220;-66
2024/01/01 15:08:20;;;;;;;5.63;2.28;;;7.90;99.90;;;8.56;68.25;97424.72;10497857;28;20239;-66
2024/01/01 15:13:23;;;;;;;5.30;2.50;;;7.70;99.90;;;8.52;67.65;97440.59;10497487;28;20339;-64
2024/01/01 15:18:27;;;;;;;5.13;2.27;;;7.70;99.90;;;8.51;67.26;97446.50;10424416;28;20247;-65
2024/01/01 15:23:31;;;;;;;5.47;2.37;;;7.60;99.90;;;8.29;68.03;97448.53;10409418;28;20233;-66
2024/01/01 15:28:35;;;;;;;5.23;3.70;;;7.50;99.90;;;8.13;69.89;97465.47;10412628;28;20315;-65
2024/01/01 15:33:38;;;;;;;7.07;4.03;;;7.30;99.90;;;7.92;71.34;97465.81;10467365;28;20342;-65
2024/01/01 15:38:44;;;;;;;8.03;3.27;;;7.20;99.90;;;7.93;71.60;97478.66;10491322;28;20233;-66
2024/01/01 15:43:47;;;;;;;7.57;2.90;;;7.10;99.90;;;7.82;72.04;97482.19;10491688;28;20223;-66
2024/01/01 15:48:50;;;;;;;6.63;3.00;;;7.00;99.90;;;7.71;73.41;97506.09;10486671;28;20606;-66
2024/01/01 15:53:55;;;;;;;6.50;2.80;;;6.90;99.90;;;7.82;71.97;97512.72;10491933;28;20352;-65
2024/01/01 15:58:59;;;;;;;5.47;2.90;;;7.00;99.90;;;7.75;72.43;97508.91;10484896;28;20227;-66
2024/01/01 16:04:02;;;;;;;7.53;5.30;;;7.00;99.90;;;7.73;73.23;97510.50;10490927;28;20234;-65
2024/01/01 16:09:07;;;;;;;12.67;7.10;;;6.90;99.90;;;7.66;73.48;97519.38;10477481;28;20230;-65
2024/01/01 16:14:10;;;;;;;35.80;19.53;;;6.90;99.90;;;7.72;73.16;97523.09;10429117;28;20323;-66
2024/01/01 16:19:14;;;;;;;29.07;15.40;;;6.90;99.90;;;7.72;73.51;97523.97;10410655;28;20238;-66
2024/01/01 16:24:30;;;;;;;9.00;4.80;;;7.00;99.90;;;7.88;71.82;97526.69;10417825;28;20626;-66
2024/01/01 16:29:34;;;;;;;9.83;5.93;;;7.10;99.90;;;7.77;73.69;97529.38;10406732;28;20240;-66
2024/01/01 16:34:37;;;;;;;9.90;3.70;;;7.00;99.90;;;7.74;73.37;97526.63;10404668;28;20225;-66
2024/01/01 16:39:44;;;;;;;4.20;3.33;;;6.90;99.90;;;7.73;72.81;97523.22;10438875;28;20224;-65
2024/01/01 16:44:47;;;;;;;8.50;3.07;;;6.90;99.90;;;7.67;73.44;97531.34;10485832;28;20261;-66
2024/01/01 16:49:51;;;;;;;7.23;3.33;;;6.90;99.90;;;7.75;73.79;97538.56;10493528;28;20615;-66
2024/01/01 16:54:57;;;;;;;7.77;3.57;;;6.90;99.90;;;7.57;74.05;97538.28;10490207;28;20702;-66
2024/01/01 17:00:03;;;;;;;5.43;3.33;;;6.80;99.90;;;7.74;73.54;97541.91;10484196;28;20235;-65
2024/01/01 17:05:08;;;;;;;6.50;3.10;;;6.90;99.90;;;7.74;72.96;97544.44;10406611;28;20646;-66
2024/01/01 17:10:13;;;;;;;5.97;2.87;;;6.90;99.90;;;7.88;72.31;97546.19;10407693;28;20227;-66
2024/01/01 17:15:16;;;;;;;4.30;2.40;;;7.00;99.90;;;7.93;71.09;97532.09;10410131;28;20266;-68
2024/01/01 17:20:19;;;;;;;5.33;2.40;;;7.10;99.90;;;7.97;69.65;97536.56;10406749;28;20233;-66
2024/01/01 17:25:24;;;;;;;5.87;2.47;;;7.30;99.90;;;8.09;69.80;97539.84;10408219;28;20375;-66
2024/01/01 17:30:28;;;;;;;4.70;2.80;;;7.40;99.90;;;8.06;68.68;97537.13;10409473;28;20260;-65
2024/01/01 17:35:34;;;;;;;4.67;3.13;;;7.40;99.90;;;8.05;68.01;97545.56;10411197;28;20830;-66
2024/01/01 17:40:38;;;;;;;4.67;2.40;;;7.40;99.90;;;7.92;67.49;97558.28;10407360;28;20222;-67
2024/01/01 17:45:42;;;;;;;6.90;3.60;;;7.40;99.90;;;7.91;68.03;97551.47;10404790;28;20240;-65
2024/01/01 17:50:45;;;;;;;3.90;2.70;;;7.30;99.90;;;7.94;66.86;97554.19;10408763;28;20236;-65
2024/01/01 17:55:50;;;;;;;5.33;2.30;;;7.30;99.90;;;7.74;68.17;97569.88;10410761;28;20225;-67
2024/01/01 18:00:53;;;;;;;5.53;2.67;;;7.20;99.90;;;7.63;69.01;97576.81;10421062;28;20221;-65
2024/01/01 18:05:56;;;;;;;5.43;2.70;;;7.00;99.90;;;7.77;67.77;97567.53;10449174;28;20578;-65
2024/01/01 18:11:01;;;;;;;7.03;3.10;;;7.00;99.90;;;7.75;68.53;97575.03;10475344;28;20225;-65
2024/01/01 18:16:07;;;;;;;4.83;3.50;;;7.00;99.90;;;7.48;69.66;97583.47;10444150;28;20235;-65
2024/01/01 18:21:10;;;;;;;7.40;4.07;;;6.80;99.90;;;7.42;69.08;97576.34;10416976;28;20259;-65
2024/01/01 18:26:16;;;;;;;9.73;4.60;;;6.70;99.90;;;7.49;68.99;97575.94;10425206;28;20541;-65
2024/01/01 18:31:20;;;;;;;8.63;4.20;;;6.70;99.90;;;7.70;68.43;97578.09;10455086;28;20216;-65
2024/01/01 18:36:24;;;;;;;15.17;7.47;;;6.90;99.90;;;7.66;67.00;97574.47;10479354;28;20296;-65
2024/01/01 18:41:29;;;;;;;5.53;4.50;;;6.90;99.90;;;7.77;66.47;97573.50;10438296;28;20231;-65
2024/01/01 18:46:32;;;;;;;9.43;5.93;;;7.00;99.90;;;7.59;67.06;97573.22;10450897;28;20243;-65
2024/01/01 18:51:35;;;;;;;6.00;3.40;;;6.80;99.90;;;7.67;66.83;97586.44;10487442;28;20230;-67
2024/01/01 18:56:40;;;;;;;17.83;12.87;;;6.90;99.90;;;7.54;67.37;97579.66;10488863;28;20225;-65
2024/01/01 19:01:46;;;;;;;11.27;7.33;;;7.00;99.90;;;7.51;68.49;97578.59;10484854;28;20231;-65
2024/01/01 19:06:49;;;;;;;7.20;3.97;;;6.80;99.90;;;7.49;68.23;97581.03;10417951;28;20255;-64
2024/01/01 19:11:53;;;;;;;6.07;5.40;;;6.80;99.90;;;7.55;68.49;97581.41;10422994;28;20240;-66
2024/01/01 19:16:56;;;;;;;7.27;6.53;;;6.90;99.90;;;7.49;68.62;97575.06;10418327;28;20221;-66
2024/01/01 19:22:00;;;;;;;5.30;3.50;;;6.80;99.90;;;7.47;68.94;97581.69;10418951;28;20236;-65
2024/01/01 19:27:05;;;;;;;7.17;4.20;;;6.70;99.90;;;7.63;67.30;97569.19;10457870;28;20239;-66
2024/01/01 19:32:08;;;;;;;4.17;3.50;;;6.90;99.90;;;7.54;68.87;97582.19;10485236;28;20548;-65
2024/01/01 19:37:12;;;;;;;9.13;4.30;;;6.80;99.90;;;7.37;69.16;97585.31;10467334;28;20280;-66
2024/01/01 19:42:17;;;;;;;8.83;4.87;;;6.60;99.90;;;7.41;69.63;97582.19;10420131;28;20226;-65
2024/01/01 19:47:20;;;;;;;15.87;10.10;;;6.60;99.90;;;7.30;68.88;97573.00;10406585;28;20221;-65
2024/01/01 19:52:23;;;;;;;7.97;4.40;;;6.60;99.90;;;7.26;68.71;97571.03;10405030;28;20238;-64
2024/01/01 19:57:28;;;;;;;10.03;6.63;;;6.60;99.90;;;7.16;70.13;97560.28;10406408;28;20235;-65
2024/01/01 20:02:32;;;;;;;8.37;6.53;;;6.50;99.90;;;7.22;70.91;97545.41;10412564;28;20232;-66
2024/01/01 20:07:35;;;;;;;7.10;4.00;;;6.40;99.90;;;7.27;70.11;97557.53;10408902;28;20599;-63
2024/01/01 20:12:40;;;;;;;8.63;3.70;;;6.50;99.90;;;7.13;70.62;97567.69;10403641;28;20604;-66
2024/01/01 20:17:43;;;;;;;5.80;3.93;;;6.40;99.90;;;6.97;71.48;97557.31;10464581;28;20228;-64
2024/01/01 20:22:46;;;;;;;5.80;3.20;;;6.30;99.90;;;6.92;71.47;97573.91;10483540;28;20231;-65
2024/01/01 20:27:52;;;;;;;6.23;3.13;;;6.30;99.90;;;6.89;72.46;97558.47;10490460;28;20317;-64
2024/01/01 20:32:55;;;;;;;6.00;4.10;;;6.20;99.90;;;6.82;72.50;97546.16;10489018;28;20221;-63
2024/01/01 20:37:59;;;;;;;8.40;4.50;;;6.20;99.90;;;7.03;73.18;97542.47;10420116;28;20234;-64
2024/01/01 20:43:04;;;;;;;4.50;3.50;;;6.30;99.90;;;6.99;73.49;97537.97;10481329;28;20644;-65
2024/01/01 20:48:08;;;;;;;6.23;3.77;;;6.30;99.90;;;7.00;72.27;97529.56;10486187;28;20708;-68
2024/01/01 20:53:11;;;;;;;5.33;3.30;;;6.30;99.90;;;7.05;72.09;97535.81;10476781;28;20229;-64
2024/01/01 20:58:16;;;;;;;7.13;3.70;;;6.30;99.90;;;6.98;72.51;97524.38;10480983;28;20716;-63
2024/01/01 21:03:19;;;;;;;8.03;3.67;;;6.30;99.90;;;6.92;72.51;97512.94;10425962;28;20769;-64
2024/01/01 21:08:22;;;;;;;7.87;3.53;;;6.20;99.90;;;6.79;73.83;97500.22;10405085;28;20665;-64
2024/01/01 21:13:27;;;;;;;98.07;46.13;;;6.10;99.90;;;6.85;73.81;97496.41;10406200;28;20251;-66
2024/01/01 21:18:30;;;;;;;57.57;29.83;;;6.10;99.90;;;6.73;74.29;97488.88;10406148;28;20224;-65
2024/01/01 21:23:34;;;;;;;13.73;8.30;;;6.00;99.90;;;6.63;74.75;97478.88;10398231;28;20367;-65
2024/01/01 21:28:43;;;;;;;7.20;3.60;;;6.00;99.90;;;6.56;75.12;97469.13;10408356;28;20229;-64